sensor_id;sensor_type;location;lat;lon;timestamp;temperature;humidity
11989;DHT22;6054;50.966;7.094;2022-10-23T00:01:32;22.10;53.30
11989;DHT22;6054;50.966;7.094;2022-10-23T00:04:00;21.70;53.40
11989;DHT22;6054;50.966;7.094;2022-10-23T00:06:28;21.80;53.50
11989;DHT22;6054;50.966;7.094;2022-10-23T00:08:55;21.80;53.30
11989;DHT22;6054;50.966;7.094;2022-10-23T00:11:24;22.00;53.30
11989;DHT22;6054;50.966;7.094;2022-10-23T00:13:54;21.80;53.50
11989;DHT22;6054;50.966;7.094;2022-10-23T00:16:21;21.70;53.50
11989;DHT22;6054;50.966;7.094;2022-10-23T00:18:49;21.70;52.90
11989;DHT22;6054;50.966;7.094;2022-10-23T00:21:16;21.70;52.90
11989;DHT22;6054;50.966;7.094;2022-10-23T00:23:44;21.70;53.20
11989;DHT22;6054;50.966;7.094;2022-10-23T00:26:12;21.70;53.30
11989;DHT22;6054;50.966;7.094;2022-10-23T00:28:40;21.70;53.50
11989;DHT22;6054;50.966;7.094;2022-10-23T00:31:07;21.70;53.20
11989;DHT22;6054;50.966;7.094;2022-10-23T00:33:33;21.60;52.70
11989;DHT22;6054;50.966;7.094;2022-10-23T00:36:04;21.60;53.00
11989;DHT22;6054;50.966;7.094;2022-10-23T00:38:31;21.60;53.40
11989;DHT22;6054;50.966;7.094;2022-10-23T00:40:58;21.60;52.70
11989;DHT22;6054;50.966;7.094;2022-10-23T00:43:27;21.60;53.40
11989;DHT22;6054;50.966;7.094;2022-10-23T00:45:54;21.60;53.40
11989;DHT22;6054;50.966;7.094;2022-10-23T00:48:22;21.60;53.40
11989;DHT22;6054;50.966;7.094;2022-10-23T00:50:49;21.60;53.40
11989;DHT22;6054;50.966;7.094;2022-10-23T00:53:19;21.60;53.20
11989;DHT22;6054;50.966;7.094;2022-10-23T00:55:48;21.60;53.50
11989;DHT22;6054;50.966;7.094;2022-10-23T00:58:17;21.60;53.40
11989;DHT22;6054;50.966;7.094;2022-10-23T01:00:47;21.50;53.40
11989;DHT22;6054;50.966;7.094;2022-10-23T01:03:16;21.70;53.50
11989;DHT22;6054;50.966;7.094;2022-10-23T01:05:48;21.50;53.30
11989;DHT22;6054;50.966;7.094;2022-10-23T01:08:24;21.50;53.30
11989;DHT22;6054;50.966;7.094;2022-10-23T01:10:59;21.50;53.20
11989;DHT22;6054;50.966;7.094;2022-10-23T01:13:34;21.40;53.20
11989;DHT22;6054;50.966;7.094;2022-10-23T01:16:07;21.40;53.40
11989;DHT22;6054;50.966;7.094;2022-10-23T01:18:40;21.40;53.90
11989;DHT22;6054;50.966;7.094;2022-10-23T01:21:12;21.40;53.60
11989;DHT22;6054;50.966;7.094;2022-10-23T01:23:55;21.40;53.90
11989;DHT22;6054;50.966;7.094;2022-10-23T01:26:37;21.40;54.20
11989;DHT22;6054;50.966;7.094;2022-10-23T01:29:13;21.40;54.20
11989;DHT22;6054;50.966;7.094;2022-10-23T01:31:48;21.70;54.50
11989;DHT22;6054;50.966;7.094;2022-10-23T01:34:20;21.40;54.20
11989;DHT22;6054;50.966;7.094;2022-10-23T01:36:49;21.50;54.40
11989;DHT22;6054;50.966;7.094;2022-10-23T01:39:21;21.40;54.30
11989;DHT22;6054;50.966;7.094;2022-10-23T01:41:53;21.60;54.60
11989;DHT22;6054;50.966;7.094;2022-10-23T01:44:25;21.50;54.30
11989;DHT22;6054;50.966;7.094;2022-10-23T01:46:53;21.50;54.40
11989;DHT22;6054;50.966;7.094;2022-10-23T01:49:23;21.50;54.30
11989;DHT22;6054;50.966;7.094;2022-10-23T01:51:57;21.50;54.00
11989;DHT22;6054;50.966;7.094;2022-10-23T01:54:29;21.50;54.60
11989;DHT22;6054;50.966;7.094;2022-10-23T01:56:57;21.60;54.60
11989;DHT22;6054;50.966;7.094;2022-10-23T01:59:29;21.50;54.30
11989;DHT22;6054;50.966;7.094;2022-10-23T02:01:59;21.50;54.70
11989;DHT22;6054;50.966;7.094;2022-10-23T02:04:31;21.50;54.80
11989;DHT22;6054;50.966;7.094;2022-10-23T02:06:59;21.50;54.90
11989;DHT22;6054;50.966;7.094;2022-10-23T02:09:26;21.50;54.60
11989;DHT22;6054;50.966;7.094;2022-10-23T02:11:57;21.50;54.80
11989;DHT22;6054;50.966;7.094;2022-10-23T02:14:35;21.50;55.10
11989;DHT22;6054;50.966;7.094;2022-10-23T02:17:08;21.50;55.20
11989;DHT22;6054;50.966;7.094;2022-10-23T02:19:43;21.50;55.00
11989;DHT22;6054;50.966;7.094;2022-10-23T02:22:15;21.50;55.00
11989;DHT22;6054;50.966;7.094;2022-10-23T02:24:48;21.50;55.10
11989;DHT22;6054;50.966;7.094;2022-10-23T02:27:23;21.50;55.10
11989;DHT22;6054;50.966;7.094;2022-10-23T02:29:55;21.50;55.20
11989;DHT22;6054;50.966;7.094;2022-10-23T02:32:23;21.50;55.30
11989;DHT22;6054;50.966;7.094;2022-10-23T02:34:52;21.50;55.20
11989;DHT22;6054;50.966;7.094;2022-10-23T02:37:19;21.50;54.90
11989;DHT22;6054;50.966;7.094;2022-10-23T02:39:46;21.50;55.20
11989;DHT22;6054;50.966;7.094;2022-10-23T02:42:16;21.50;55.20
11989;DHT22;6054;50.966;7.094;2022-10-23T02:44:56;21.50;55.50
11989;DHT22;6054;50.966;7.094;2022-10-23T02:47:34;21.80;55.80
11989;DHT22;6054;50.966;7.094;2022-10-23T02:50:08;21.50;55.60
11989;DHT22;6054;50.966;7.094;2022-10-23T02:52:40;21.60;55.50
11989;DHT22;6054;50.966;7.094;2022-10-23T02:55:16;21.50;55.40
11989;DHT22;6054;50.966;7.094;2022-10-23T02:57:49;21.60;55.60
11989;DHT22;6054;50.966;7.094;2022-10-23T03:00:21;21.60;55.70
11989;DHT22;6054;50.966;7.094;2022-10-23T03:02:53;21.60;55.60
11989;DHT22;6054;50.966;7.094;2022-10-23T03:05:22;21.60;55.80
11989;DHT22;6054;50.966;7.094;2022-10-23T03:07:51;21.60;55.50
11989;DHT22;6054;50.966;7.094;2022-10-23T03:10:18;21.60;55.70
11989;DHT22;6054;50.966;7.094;2022-10-23T03:12:45;21.60;55.60
11989;DHT22;6054;50.966;7.094;2022-10-23T03:15:13;21.60;55.10
11989;DHT22;6054;50.966;7.094;2022-10-23T03:17:41;21.60;55.90
11989;DHT22;6054;50.966;7.094;2022-10-23T03:20:09;21.70;55.60
11989;DHT22;6054;50.966;7.094;2022-10-23T03:22:37;21.70;55.90
11989;DHT22;6054;50.966;7.094;2022-10-23T03:25:04;21.70;55.70
11989;DHT22;6054;50.966;7.094;2022-10-23T03:27:31;21.70;55.80
11989;DHT22;6054;50.966;7.094;2022-10-23T03:29:58;21.70;55.40
11989;DHT22;6054;50.966;7.094;2022-10-23T03:32:25;21.80;55.40
11989;DHT22;6054;50.966;7.094;2022-10-23T03:34:53;21.70;55.20
11989;DHT22;6054;50.966;7.094;2022-10-23T03:37:19;21.70;55.10
11989;DHT22;6054;50.966;7.094;2022-10-23T03:39:46;21.70;55.10
11989;DHT22;6054;50.966;7.094;2022-10-23T03:42:13;21.70;55.20
11989;DHT22;6054;50.966;7.094;2022-10-23T03:44:40;21.90;55.30
11989;DHT22;6054;50.966;7.094;2022-10-23T03:47:06;21.70;55.30
11989;DHT22;6054;50.966;7.094;2022-10-23T03:49:34;21.70;55.40
11989;DHT22;6054;50.966;7.094;2022-10-23T03:52:03;21.70;55.10
11989;DHT22;6054;50.966;7.094;2022-10-23T03:54:30;21.70;55.50
11989;DHT22;6054;50.966;7.094;2022-10-23T03:56:58;21.70;55.30
11989;DHT22;6054;50.966;7.094;2022-10-23T03:59:25;21.70;55.60
11989;DHT22;6054;50.966;7.094;2022-10-23T04:01:53;21.70;55.60
11989;DHT22;6054;50.966;7.094;2022-10-23T04:04:20;21.70;55.60
11989;DHT22;6054;50.966;7.094;2022-10-23T04:06:46;21.70;55.10
11989;DHT22;6054;50.966;7.094;2022-10-23T04:09:14;21.80;55.20
11989;DHT22;6054;50.966;7.094;2022-10-23T04:11:41;21.70;55.30
11989;DHT22;6054;50.966;7.094;2022-10-23T04:14:10;21.70;55.40
11989;DHT22;6054;50.966;7.094;2022-10-23T04:16:37;21.80;55.80
11989;DHT22;6054;50.966;7.094;2022-10-23T04:19:03;21.80;55.10
11989;DHT22;6054;50.966;7.094;2022-10-23T04:21:30;21.80;55.20
11989;DHT22;6054;50.966;7.094;2022-10-23T04:23:57;21.80;55.20
11989;DHT22;6054;50.966;7.094;2022-10-23T04:26:25;21.70;55.20
11989;DHT22;6054;50.966;7.094;2022-10-23T04:28:52;21.70;55.20
11989;DHT22;6054;50.966;7.094;2022-10-23T04:31:18;21.70;54.70
11989;DHT22;6054;50.966;7.094;2022-10-23T04:33:45;21.90;54.90
11989;DHT22;6054;50.966;7.094;2022-10-23T04:36:12;21.90;55.10
11989;DHT22;6054;50.966;7.094;2022-10-23T04:38:38;21.70;55.00
11989;DHT22;6054;50.966;7.094;2022-10-23T04:41:05;21.70;55.20
11989;DHT22;6054;50.966;7.094;2022-10-23T04:43:34;21.70;55.00
11989;DHT22;6054;50.966;7.094;2022-10-23T04:46:01;21.60;55.10
11989;DHT22;6054;50.966;7.094;2022-10-23T04:48:28;21.60;55.20
11989;DHT22;6054;50.966;7.094;2022-10-23T04:50:55;21.60;55.10
11989;DHT22;6054;50.966;7.094;2022-10-23T04:53:23;21.60;55.50
11989;DHT22;6054;50.966;7.094;2022-10-23T04:55:50;21.60;55.30
11989;DHT22;6054;50.966;7.094;2022-10-23T04:58:17;21.60;55.50
11989;DHT22;6054;50.966;7.094;2022-10-23T05:00:46;21.60;55.00
11989;DHT22;6054;50.966;7.094;2022-10-23T05:03:13;21.60;55.50
11989;DHT22;6054;50.966;7.094;2022-10-23T05:05:40;21.60;55.60
11989;DHT22;6054;50.966;7.094;2022-10-23T05:08:08;21.60;55.70
11989;DHT22;6054;50.966;7.094;2022-10-23T05:10:35;21.60;56.20
11989;DHT22;6054;50.966;7.094;2022-10-23T05:13:02;21.60;55.30
11989;DHT22;6054;50.966;7.094;2022-10-23T05:15:29;21.60;55.50
11989;DHT22;6054;50.966;7.094;2022-10-23T05:18:01;21.60;55.30
11989;DHT22;6054;50.966;7.094;2022-10-23T05:20:34;21.60;55.30
11989;DHT22;6054;50.966;7.094;2022-10-23T05:23:02;21.70;55.30
11989;DHT22;6054;50.966;7.094;2022-10-23T05:25:32;21.60;55.30
11989;DHT22;6054;50.966;7.094;2022-10-23T05:27:58;21.70;55.00
11989;DHT22;6054;50.966;7.094;2022-10-23T05:30:25;21.70;54.60
11989;DHT22;6054;50.966;7.094;2022-10-23T05:32:53;21.70;55.00
11989;DHT22;6054;50.966;7.094;2022-10-23T05:35:22;21.70;54.80
11989;DHT22;6054;50.966;7.094;2022-10-23T05:37:50;21.70;55.10
11989;DHT22;6054;50.966;7.094;2022-10-23T05:40:18;21.60;55.20
11989;DHT22;6054;50.966;7.094;2022-10-23T05:42:45;21.60;54.60
11989;DHT22;6054;50.966;7.094;2022-10-23T05:45:11;21.70;54.70
11989;DHT22;6054;50.966;7.094;2022-10-23T05:47:38;21.60;54.70
11989;DHT22;6054;50.966;7.094;2022-10-23T05:50:05;21.60;54.50
11989;DHT22;6054;50.966;7.094;2022-10-23T05:52:33;21.70;54.80
11989;DHT22;6054;50.966;7.094;2022-10-23T05:55:00;21.60;54.10
11989;DHT22;6054;50.966;7.094;2022-10-23T05:57:27;21.60;54.40
11989;DHT22;6054;50.966;7.094;2022-10-23T05:59:54;21.60;54.30
11989;DHT22;6054;50.966;7.094;2022-10-23T06:02:20;21.60;54.40
11989;DHT22;6054;50.966;7.094;2022-10-23T06:04:47;21.60;54.30
11989;DHT22;6054;50.966;7.094;2022-10-23T06:07:14;21.60;52.90
11989;DHT22;6054;50.966;7.094;2022-10-23T06:09:42;21.60;54.20
11989;DHT22;6054;50.966;7.094;2022-10-23T06:12:09;21.60;54.00
11989;DHT22;6054;50.966;7.094;2022-10-23T06:14:35;21.60;54.40
11989;DHT22;6054;50.966;7.094;2022-10-23T06:17:02;21.60;54.20
11989;DHT22;6054;50.966;7.094;2022-10-23T06:19:29;21.60;54.00
11989;DHT22;6054;50.966;7.094;2022-10-23T06:21:55;21.60;54.10
11989;DHT22;6054;50.966;7.094;2022-10-23T06:24:22;21.60;54.10
11989;DHT22;6054;50.966;7.094;2022-10-23T06:26:50;21.60;54.50
11989;DHT22;6054;50.966;7.094;2022-10-23T06:29:18;21.60;54.20
11989;DHT22;6054;50.966;7.094;2022-10-23T06:31:44;21.60;54.20
11989;DHT22;6054;50.966;7.094;2022-10-23T06:34:11;21.60;54.40
11989;DHT22;6054;50.966;7.094;2022-10-23T06:36:38;21.80;54.40
11989;DHT22;6054;50.966;7.094;2022-10-23T06:39:05;21.70;54.30
11989;DHT22;6054;50.966;7.094;2022-10-23T06:41:32;21.90;54.80
11989;DHT22;6054;50.966;7.094;2022-10-23T06:44:00;21.90;54.30
11989;DHT22;6054;50.966;7.094;2022-10-23T06:46:27;21.70;54.20
11989;DHT22;6054;50.966;7.094;2022-10-23T06:48:57;21.70;53.90
11989;DHT22;6054;50.966;7.094;2022-10-23T06:51:24;21.80;54.10
11989;DHT22;6054;50.966;7.094;2022-10-23T06:53:54;21.70;54.00
11989;DHT22;6054;50.966;7.094;2022-10-23T06:56:21;21.70;54.30
11989;DHT22;6054;50.966;7.094;2022-10-23T06:58:49;21.70;54.70
11989;DHT22;6054;50.966;7.094;2022-10-23T07:01:17;21.80;54.50
11989;DHT22;6054;50.966;7.094;2022-10-23T07:03:44;21.70;53.90
11989;DHT22;6054;50.966;7.094;2022-10-23T07:06:13;21.70;54.40
11989;DHT22;6054;50.966;7.094;2022-10-23T07:08:40;21.80;54.00
11989;DHT22;6054;50.966;7.094;2022-10-23T07:11:08;21.80;53.60
11989;DHT22;6054;50.966;7.094;2022-10-23T07:13:36;21.80;54.30
11989;DHT22;6054;50.966;7.094;2022-10-23T07:16:11;21.90;54.40
11989;DHT22;6054;50.966;7.094;2022-10-23T07:18:39;21.80;54.20
11989;DHT22;6054;50.966;7.094;2022-10-23T07:21:06;21.90;53.70
11989;DHT22;6054;50.966;7.094;2022-10-23T07:23:33;22.00;53.60
11989;DHT22;6054;50.966;7.094;2022-10-23T07:26:08;21.90;54.10
11989;DHT22;6054;50.966;7.094;2022-10-23T07:28:35;21.90;54.10
11989;DHT22;6054;50.966;7.094;2022-10-23T07:31:02;21.90;53.70
11989;DHT22;6054;50.966;7.094;2022-10-23T07:33:29;21.90;53.60
11989;DHT22;6054;50.966;7.094;2022-10-23T07:35:57;21.90;53.10
11989;DHT22;6054;50.966;7.094;2022-10-23T07:38:24;22.00;53.30
11989;DHT22;6054;50.966;7.094;2022-10-23T07:40:51;22.00;53.10
11989;DHT22;6054;50.966;7.094;2022-10-23T07:43:19;22.00;50.80
11989;DHT22;6054;50.966;7.094;2022-10-23T07:45:47;22.10;53.10
11989;DHT22;6054;50.966;7.094;2022-10-23T07:48:14;22.20;53.70
11989;DHT22;6054;50.966;7.094;2022-10-23T07:50:41;22.10;53.40
11989;DHT22;6054;50.966;7.094;2022-10-23T07:53:15;22.30;54.10
11989;DHT22;6054;50.966;7.094;2022-10-23T07:55:44;22.20;53.20
11989;DHT22;6054;50.966;7.094;2022-10-23T07:58:16;22.20;53.30
11989;DHT22;6054;50.966;7.094;2022-10-23T08:00:43;22.20;52.90
11989;DHT22;6054;50.966;7.094;2022-10-23T08:03:16;22.20;53.00
11989;DHT22;6054;50.966;7.094;2022-10-23T08:05:43;22.20;53.00
11989;DHT22;6054;50.966;7.094;2022-10-23T08:08:11;22.30;52.80
11989;DHT22;6054;50.966;7.094;2022-10-23T08:10:38;22.30;52.80
11989;DHT22;6054;50.966;7.094;2022-10-23T08:13:06;22.50;53.00
11989;DHT22;6054;50.966;7.094;2022-10-23T08:15:32;22.30;52.00
11989;DHT22;6054;50.966;7.094;2022-10-23T08:17:59;22.40;52.30
11989;DHT22;6054;50.966;7.094;2022-10-23T08:20:26;22.60;52.10
11989;DHT22;6054;50.966;7.094;2022-10-23T08:22:53;22.70;52.00
11989;DHT22;6054;50.966;7.094;2022-10-23T08:25:22;22.60;51.00
11989;DHT22;6054;50.966;7.094;2022-10-23T08:27:49;22.50;52.30
11989;DHT22;6054;50.966;7.094;2022-10-23T08:30:16;22.60;52.30
11989;DHT22;6054;50.966;7.094;2022-10-23T08:32:42;22.50;51.80
11989;DHT22;6054;50.966;7.094;2022-10-23T08:35:09;22.60;52.30
11989;DHT22;6054;50.966;7.094;2022-10-23T08:37:36;22.60;52.20
11989;DHT22;6054;50.966;7.094;2022-10-23T08:40:03;22.80;52.30
11989;DHT22;6054;50.966;7.094;2022-10-23T08:42:36;22.60;52.60
11989;DHT22;6054;50.966;7.094;2022-10-23T08:45:06;22.70;52.60
11989;DHT22;6054;50.966;7.094;2022-10-23T08:47:41;22.70;52.60
11989;DHT22;6054;50.966;7.094;2022-10-23T08:50:13;22.70;52.50
11989;DHT22;6054;50.966;7.094;2022-10-23T08:52:43;22.70;52.30
11989;DHT22;6054;50.966;7.094;2022-10-23T08:55:16;22.80;52.60
11989;DHT22;6054;50.966;7.094;2022-10-23T08:57:52;22.80;52.40
11989;DHT22;6054;50.966;7.094;2022-10-23T09:00:21;22.80;52.30
11989;DHT22;6054;50.966;7.094;2022-10-23T09:02:49;22.80;52.00
11989;DHT22;6054;50.966;7.094;2022-10-23T09:05:20;22.90;52.50
11989;DHT22;6054;50.966;7.094;2022-10-23T09:08:00;22.90;52.50
11989;DHT22;6054;50.966;7.094;2022-10-23T09:10:41;22.90;52.50
11989;DHT22;6054;50.966;7.094;2022-10-23T09:13:25;22.90;52.50
11989;DHT22;6054;50.966;7.094;2022-10-23T09:16:03;23.00;52.50
11989;DHT22;6054;50.966;7.094;2022-10-23T09:18:37;23.00;52.40
11989;DHT22;6054;50.966;7.094;2022-10-23T09:21:08;23.10;52.40
11989;DHT22;6054;50.966;7.094;2022-10-23T09:23:36;23.10;52.20
11989;DHT22;6054;50.966;7.094;2022-10-23T09:26:10;23.20;52.30
11989;DHT22;6054;50.966;7.094;2022-10-23T09:28:45;23.30;52.50
11989;DHT22;6054;50.966;7.094;2022-10-23T09:31:12;23.30;52.30
11989;DHT22;6054;50.966;7.094;2022-10-23T09:33:40;23.60;52.20
11989;DHT22;6054;50.966;7.094;2022-10-23T09:36:15;23.40;51.70
11989;DHT22;6054;50.966;7.094;2022-10-23T09:38:48;23.50;51.90
11989;DHT22;6054;50.966;7.094;2022-10-23T09:41:18;23.50;51.90
11989;DHT22;6054;50.966;7.094;2022-10-23T09:43:57;23.70;52.10
11989;DHT22;6054;50.966;7.094;2022-10-23T09:46:24;23.60;52.00
11989;DHT22;6054;50.966;7.094;2022-10-23T09:49:01;23.70;52.00
11989;DHT22;6054;50.966;7.094;2022-10-23T09:51:28;23.80;51.70
11989;DHT22;6054;50.966;7.094;2022-10-23T09:53:58;23.90;51.80
11989;DHT22;6054;50.966;7.094;2022-10-23T09:56:27;23.90;52.20
11989;DHT22;6054;50.966;7.094;2022-10-23T09:58:58;24.00;52.20
11989;DHT22;6054;50.966;7.094;2022-10-23T10:01:28;23.90;51.40
11989;DHT22;6054;50.966;7.094;2022-10-23T10:03:55;24.10;51.50
11989;DHT22;6054;50.966;7.094;2022-10-23T10:06:24;24.20;50.30
11989;DHT22;6054;50.966;7.094;2022-10-23T10:08:53;24.10;51.10
11989;DHT22;6054;50.966;7.094;2022-10-23T10:11:26;24.20;51.20
11989;DHT22;6054;50.966;7.094;2022-10-23T10:17:02;24.20;51.50
11989;DHT22;6054;50.966;7.094;2022-10-23T10:19:39;24.20;51.30
11989;DHT22;6054;50.966;7.094;2022-10-23T10:22:19;24.20;51.40
11989;DHT22;6054;50.966;7.094;2022-10-23T10:24:53;24.30;51.40
11989;DHT22;6054;50.966;7.094;2022-10-23T10:27:32;24.20;51.20
11989;DHT22;6054;50.966;7.094;2022-10-23T10:30:10;24.30;51.30
11989;DHT22;6054;50.966;7.094;2022-10-23T10:32:42;24.30;51.20
11989;DHT22;6054;50.966;7.094;2022-10-23T10:35:22;24.30;51.40
11989;DHT22;6054;50.966;7.094;2022-10-23T10:38:28;24.40;51.30
11989;DHT22;6054;50.966;7.094;2022-10-23T10:41:21;24.40;51.10
11989;DHT22;6054;50.966;7.094;2022-10-23T10:43:57;24.40;50.90
11989;DHT22;6054;50.966;7.094;2022-10-23T10:46:31;24.40;50.70
11989;DHT22;6054;50.966;7.094;2022-10-23T10:49:05;24.30;50.50
11989;DHT22;6054;50.966;7.094;2022-10-23T10:51:38;24.40;50.70
11989;DHT22;6054;50.966;7.094;2022-10-23T10:54:19;24.60;50.80
11989;DHT22;6054;50.966;7.094;2022-10-23T10:56:47;24.50;50.60
11989;DHT22;6054;50.966;7.094;2022-10-23T10:59:18;24.40;50.00
11989;DHT22;6054;50.966;7.094;2022-10-23T11:01:51;24.40;50.20
11989;DHT22;6054;50.966;7.094;2022-10-23T11:04:27;24.40;50.10
11989;DHT22;6054;50.966;7.094;2022-10-23T11:06:55;24.40;50.20
11989;DHT22;6054;50.966;7.094;2022-10-23T11:09:25;24.40;50.20
11989;DHT22;6054;50.966;7.094;2022-10-23T11:11:53;24.50;50.20
11989;DHT22;6054;50.966;7.094;2022-10-23T11:14:22;24.50;50.10
11989;DHT22;6054;50.966;7.094;2022-10-23T11:16:52;24.50;50.00
11989;DHT22;6054;50.966;7.094;2022-10-23T11:19:24;24.40;49.90
11989;DHT22;6054;50.966;7.094;2022-10-23T11:21:56;24.50;49.80
11989;DHT22;6054;50.966;7.094;2022-10-23T11:25:04;24.50;49.70
11989;DHT22;6054;50.966;7.094;2022-10-23T11:27:48;24.50;49.90
11989;DHT22;6054;50.966;7.094;2022-10-23T11:30:21;24.40;50.10
11989;DHT22;6054;50.966;7.094;2022-10-23T11:33:10;24.40;49.90
11989;DHT22;6054;50.966;7.094;2022-10-23T11:35:51;24.40;50.00
11989;DHT22;6054;50.966;7.094;2022-10-23T11:38:23;24.60;50.10
11989;DHT22;6054;50.966;7.094;2022-10-23T11:40:53;24.60;50.20
11989;DHT22;6054;50.966;7.094;2022-10-23T11:43:29;24.40;50.20
11989;DHT22;6054;50.966;7.094;2022-10-23T11:45:56;24.40;50.30
11989;DHT22;6054;50.966;7.094;2022-10-23T11:48:35;24.40;50.10
11989;DHT22;6054;50.966;7.094;2022-10-23T11:51:03;24.30;50.50
11989;DHT22;6054;50.966;7.094;2022-10-23T11:53:38;24.40;50.50
11989;DHT22;6054;50.966;7.094;2022-10-23T11:56:24;24.40;50.70
11989;DHT22;6054;50.966;7.094;2022-10-23T11:58:52;24.40;50.50
11989;DHT22;6054;50.966;7.094;2022-10-23T12:01:27;24.50;50.40
11989;DHT22;6054;50.966;7.094;2022-10-23T12:04:00;24.70;51.20
11989;DHT22;6054;50.966;7.094;2022-10-23T12:06:30;24.50;50.70
11989;DHT22;6054;50.966;7.094;2022-10-23T12:09:01;24.50;50.70
11989;DHT22;6054;50.966;7.094;2022-10-23T12:11:42;24.50;50.70
11989;DHT22;6054;50.966;7.094;2022-10-23T12:14:27;24.60;50.60
11989;DHT22;6054;50.966;7.094;2022-10-23T12:16:54;24.50;50.40
11989;DHT22;6054;50.966;7.094;2022-10-23T12:19:24;24.60;50.10
11989;DHT22;6054;50.966;7.094;2022-10-23T12:21:51;24.60;50.50
11989;DHT22;6054;50.966;7.094;2022-10-23T12:24:34;24.60;50.20
11989;DHT22;6054;50.966;7.094;2022-10-23T12:27:15;24.60;50.60
11989;DHT22;6054;50.966;7.094;2022-10-23T12:30:01;24.70;50.50
11989;DHT22;6054;50.966;7.094;2022-10-23T12:32:50;24.80;50.40
11989;DHT22;6054;50.966;7.094;2022-10-23T12:35:28;24.80;50.40
11989;DHT22;6054;50.966;7.094;2022-10-23T12:38:10;24.80;50.20
11989;DHT22;6054;50.966;7.094;2022-10-23T12:40:39;24.80;50.00
11989;DHT22;6054;50.966;7.094;2022-10-23T12:43:20;24.90;50.00
11989;DHT22;6054;50.966;7.094;2022-10-23T12:45:49;24.90;50.10
11989;DHT22;6054;50.966;7.094;2022-10-23T12:48:18;24.90;49.90
11989;DHT22;6054;50.966;7.094;2022-10-23T12:50:49;25.00;50.00
11989;DHT22;6054;50.966;7.094;2022-10-23T12:53:17;25.20;50.10
11989;DHT22;6054;50.966;7.094;2022-10-23T12:55:50;25.00;50.00
11989;DHT22;6054;50.966;7.094;2022-10-23T12:58:20;25.00;49.70
11989;DHT22;6054;50.966;7.094;2022-10-23T13:00:51;25.00;50.00
11989;DHT22;6054;50.966;7.094;2022-10-23T13:03:20;25.00;50.00
11989;DHT22;6054;50.966;7.094;2022-10-23T13:05:50;25.30;50.00
11989;DHT22;6054;50.966;7.094;2022-10-23T13:08:18;25.10;50.10
11989;DHT22;6054;50.966;7.094;2022-10-23T13:10:45;25.10;49.80
11989;DHT22;6054;50.966;7.094;2022-10-23T13:13:16;25.10;49.90
11989;DHT22;6054;50.966;7.094;2022-10-23T13:15:45;25.30;50.10
11989;DHT22;6054;50.966;7.094;2022-10-23T13:18:13;25.10;49.50
11989;DHT22;6054;50.966;7.094;2022-10-23T13:20:41;25.30;50.00
11989;DHT22;6054;50.966;7.094;2022-10-23T13:23:16;25.10;49.80
11989;DHT22;6054;50.966;7.094;2022-10-23T13:25:52;25.10;50.10
11989;DHT22;6054;50.966;7.094;2022-10-23T13:28:24;25.20;50.10
11989;DHT22;6054;50.966;7.094;2022-10-23T13:31:03;25.30;50.20
11989;DHT22;6054;50.966;7.094;2022-10-23T13:33:40;25.10;50.00
11989;DHT22;6054;50.966;7.094;2022-10-23T13:36:20;25.20;50.00
11989;DHT22;6054;50.966;7.094;2022-10-23T13:39:00;25.10;49.80
11989;DHT22;6054;50.966;7.094;2022-10-23T13:41:29;25.10;49.90
11989;DHT22;6054;50.966;7.094;2022-10-23T13:43:56;25.20;50.10
11989;DHT22;6054;50.966;7.094;2022-10-23T13:46:23;25.20;50.40
11989;DHT22;6054;50.966;7.094;2022-10-23T13:48:50;25.30;49.90
11989;DHT22;6054;50.966;7.094;2022-10-23T13:51:19;25.30;49.50
11989;DHT22;6054;50.966;7.094;2022-10-23T13:53:48;25.30;50.20
11989;DHT22;6054;50.966;7.094;2022-10-23T13:56:17;25.40;49.90
11989;DHT22;6054;50.966;7.094;2022-10-23T13:58:44;25.40;50.00
11989;DHT22;6054;50.966;7.094;2022-10-23T14:01:22;25.60;49.80
11989;DHT22;6054;50.966;7.094;2022-10-23T14:03:49;25.60;49.90
11989;DHT22;6054;50.966;7.094;2022-10-23T14:06:17;25.40;49.70
11989;DHT22;6054;50.966;7.094;2022-10-23T14:08:44;25.40;49.90
11989;DHT22;6054;50.966;7.094;2022-10-23T14:11:13;25.40;49.80
11989;DHT22;6054;50.966;7.094;2022-10-23T14:13:40;25.50;50.10
11989;DHT22;6054;50.966;7.094;2022-10-23T14:16:10;25.50;50.00
11989;DHT22;6054;50.966;7.094;2022-10-23T14:18:38;25.40;50.10
11989;DHT22;6054;50.966;7.094;2022-10-23T14:21:06;25.50;49.90
11989;DHT22;6054;50.966;7.094;2022-10-23T14:23:33;25.50;50.10
11989;DHT22;6054;50.966;7.094;2022-10-23T14:26:03;25.50;49.90
11989;DHT22;6054;50.966;7.094;2022-10-23T14:28:32;25.50;50.20
11989;DHT22;6054;50.966;7.094;2022-10-23T14:31:02;25.50;50.00
11989;DHT22;6054;50.966;7.094;2022-10-23T14:33:29;25.50;50.20
11989;DHT22;6054;50.966;7.094;2022-10-23T14:35:56;25.50;50.20
11989;DHT22;6054;50.966;7.094;2022-10-23T14:38:23;25.40;49.60
11989;DHT22;6054;50.966;7.094;2022-10-23T14:40:50;25.60;49.80
11989;DHT22;6054;50.966;7.094;2022-10-23T14:43:17;25.50;49.70
11989;DHT22;6054;50.966;7.094;2022-10-23T14:45:45;25.50;49.80
11989;DHT22;6054;50.966;7.094;2022-10-23T14:48:12;25.60;50.00
11989;DHT22;6054;50.966;7.094;2022-10-23T14:50:42;25.50;49.60
11989;DHT22;6054;50.966;7.094;2022-10-23T14:53:09;25.60;50.50
11989;DHT22;6054;50.966;7.094;2022-10-23T14:55:36;25.50;50.00
11989;DHT22;6054;50.966;7.094;2022-10-23T14:58:03;25.70;49.90
11989;DHT22;6054;50.966;7.094;2022-10-23T15:00:29;25.60;50.10
11989;DHT22;6054;50.966;7.094;2022-10-23T15:02:58;25.50;50.00
11989;DHT22;6054;50.966;7.094;2022-10-23T15:05:25;25.70;50.20
11989;DHT22;6054;50.966;7.094;2022-10-23T15:07:51;25.70;50.30
11989;DHT22;6054;50.966;7.094;2022-10-23T15:10:20;25.60;50.60
11989;DHT22;6054;50.966;7.094;2022-10-23T15:12:46;25.70;50.40
11989;DHT22;6054;50.966;7.094;2022-10-23T15:15:13;25.60;50.30
11989;DHT22;6054;50.966;7.094;2022-10-23T15:17:40;25.60;50.10
11989;DHT22;6054;50.966;7.094;2022-10-23T15:20:09;25.60;49.80
11989;DHT22;6054;50.966;7.094;2022-10-23T15:22:36;25.60;50.30
11989;DHT22;6054;50.966;7.094;2022-10-23T15:25:03;25.90;50.10
11989;DHT22;6054;50.966;7.094;2022-10-23T15:27:30;25.70;50.60
11989;DHT22;6054;50.966;7.094;2022-10-23T15:29:57;25.60;50.00
11989;DHT22;6054;50.966;7.094;2022-10-23T15:32:23;25.60;50.20
11989;DHT22;6054;50.966;7.094;2022-10-23T15:34:50;25.70;50.30
11989;DHT22;6054;50.966;7.094;2022-10-23T15:37:19;25.60;50.40
11989;DHT22;6054;50.966;7.094;2022-10-23T15:39:46;25.60;50.30
11989;DHT22;6054;50.966;7.094;2022-10-23T15:42:12;25.60;49.80
11989;DHT22;6054;50.966;7.094;2022-10-23T15:44:40;25.60;50.10
11989;DHT22;6054;50.966;7.094;2022-10-23T15:47:06;25.60;50.20
11989;DHT22;6054;50.966;7.094;2022-10-23T15:49:33;25.70;50.20
11989;DHT22;6054;50.966;7.094;2022-10-23T15:52:02;25.60;50.10
11989;DHT22;6054;50.966;7.094;2022-10-23T15:54:30;25.60;50.50
11989;DHT22;6054;50.966;7.094;2022-10-23T15:56:57;25.60;50.30
11989;DHT22;6054;50.966;7.094;2022-10-23T15:59:24;25.90;50.20
11989;DHT22;6054;50.966;7.094;2022-10-23T16:01:51;25.70;50.20
11989;DHT22;6054;50.966;7.094;2022-10-23T16:04:18;25.70;50.30
11989;DHT22;6054;50.966;7.094;2022-10-23T16:06:45;25.70;50.20